Archimede — IXZR — position and weather

sailwx.info

Track history (hours):
 
Tides and Currents Weather Stations Pressure Air Temp Water Temp Dewpoint Dewpoint Depression Visibility Wind Speed Wind Dir Waves Ship Positions

Archimede

Last reported at 2015-Jul-05 00:04 UTC. Time now 2015-Jul-05 21:06 UTC.
Position N 38°13' E 015°34'.

; draft 3.1 m.

Type: Passenger vessel. MMSI: 247054700.

Date/timePositionNaut miles runAvg speedWind from/ knotsBaromVisibWave heightAir tempDewpointWater temp
2015-Jul-05 00:04N 38°13' E 015°34'3 6.6
2015-Jul-04 23:33N 38°13' E 015°38'7 6.7
2015-Jul-04 22:33N 38°08' E 015°32'7 6.8
2015-Jul-04 21:33N 38°13' E 015°38'8 7.5
2015-Jul-04 20:34N 38°08' E 015°31'7 7.4
2015-Jul-04 19:33N 38°13' E 015°38'5 5.4
2015-Jul-04 18:33N 38°09' E 015°35'5 4.6
2015-Jul-04 17:33N 38°13' E 015°37'5 4.8
2015-Jul-04 16:34N 38°09' E 015°34'3 2.5
2015-Jul-04 15:33N 38°11' E 015°35'3 3.3
2015-Jul-04 14:33N 38°13' E 015°38'7 7.5
2015-Jul-04 13:34N 38°08' E 015°31'7 7.5
2015-Jul-04 12:33N 38°13' E 015°38'6 5.9
2015-Jul-04 11:33N 38°08' E 015°34'5 5.2
2015-Jul-04 10:33N 38°13' E 015°37'6 5.6
2015-Jul-04 09:33N 38°08' E 015°33'3 3.1
2015-Jul-04 08:33N 38°11' E 015°35'2 2.0
2015-Jul-04 07:33N 38°09' E 015°36'2 1.7
2015-Jul-04 06:33N 38°11' E 015°36'3 0.5
2015-Jul-04 00:26N 38°13' E 015°38'3 3.8
2015-Jul-03 23:33N 38°13' E 015°34'3 3.4
2015-Jul-03 22:34N 38°13' E 015°38'0 0.0
2015-Jul-03 21:34N 38°13' E 015°38'7 7.2
2015-Jul-03 20:32N 38°08' E 015°31'7 7.4
2015-Jul-03 19:33N 38°13' E 015°38'5 5.1
2015-Jul-03 18:33N 38°09' E 015°35'4 3.8
2015-Jul-03 17:33N 38°12' E 015°36'4 3.8
2015-Jul-03 16:33N 38°09' E 015°35'2 2.5
2015-Jul-03 15:33N 38°11' E 015°35'2 2.0
2015-Jul-03 14:33N 38°12' E 015°37'6 6.2
2015-Jul-03 13:33N 38°08' E 015°32'7 7.3
2015-Jul-03 12:33N 38°13' E 015°38'5 5.4
2015-Jul-03 11:33N 38°09' E 015°35'3 3.2
2015-Jul-03 10:33N 38°12' E 015°36'2 2.3
2015-Jul-03 09:33N 38°09' E 015°36'2 1.5
2015-Jul-03 08:33N 38°10' E 015°35'2 1.5
2015-Jul-03 07:33N 38°09' E 015°36'2 1.6
2015-Jul-03 06:33N 38°10' E 015°35'4 0.8
2015-Jul-03 01:27N 38°13' E 015°38'7 6.7
2015-Jul-03 00:20N 38°08' E 015°31'7 9.6
2015-Jul-02 23:33N 38°13' E 015°38'7 7.2
2015-Jul-02 22:33N 38°08' E 015°32'7 6.8
2015-Jul-02 21:33N 38°13' E 015°37'7 6.8
2015-Jul-02 20:32N 38°08' E 015°31'7 7.7
2015-Jul-02 19:33N 38°13' E 015°38'6 5.8
2015-Jul-02 18:33N 38°09' E 015°34'4 3.9
2015-Jul-02 17:33N 38°12' E 015°36'2 1.9
2015-Jul-02 16:33N 38°10' E 015°37'3 2.5
2015-Jul-02 15:33N 38°09' E 015°34'5 5.1
2015-Jul-02 14:34N 38°13' E 015°38'7 7.3
2015-Jul-02 13:33N 38°08' E 015°31'7 7.4
2015-Jul-02 12:33N 38°13' E 015°38'7 7.0
2015-Jul-02 11:33N 38°08' E 015°32'6 6.2
2015-Jul-02 10:33N 38°13' E 015°37'5 5.0
2015-Jul-02 09:33N 38°08' E 015°34'2 2.4
2015-Jul-02 08:33N 38°11' E 015°35'2 2.0
2015-Jul-02 07:33N 38°09' E 015°36'2 2.0
2015-Jul-02 06:34N 38°10' E 015°35'2 0.4
2015-Jul-02 00:34N 38°11' E 015°37'6 5.8
2015-Jul-01 23:34N 38°08' E 015°31'7 7.4
2015-Jul-01 22:34N 38°13' E 015°38'0 0.0
2015-Jul-01 21:33N 38°13' E 015°38'7 7.4
2015-Jul-01 20:34N 38°08' E 015°31'7 7.4
2015-Jul-01 19:34N 38°13' E 015°38'5 5.3
2015-Jul-01 18:33N 38°09' E 015°35'2 2.5
2015-Jul-01 17:34N 38°11' E 015°35'2 1.6
2015-Jul-01 16:33N 38°11' E 015°37'3 3.0
2015-Jul-01 15:33N 38°09' E 015°34'5 5.2
2015-Jul-01 14:33N 38°13' E 015°38'7 7.5
2015-Jul-01 13:33N 38°08' E 015°31'7 7.5
2015-Jul-01 12:34N 38°13' E 015°38'6 6.2
2015-Jul-01 11:34N 38°08' E 015°33'6 5.6
2015-Jul-01 10:33N 38°13' E 015°37'4 4.1
2015-Jul-01 09:33N 38°09' E 015°36'2 1.7
2015-Jul-01 08:33N 38°11' E 015°35'2 1.7
2015-Jul-01 07:33N 38°09' E 015°36'2 1.6
2015-Jul-01 06:33N 38°10' E 015°35'4 0.8
2015-Jul-01 01:34N 38°13' E 015°38'7 7.4
2015-Jul-01 00:33N 38°08' E 015°31'7 7.5
2015-Jun-30 23:33N 38°13' E 015°38'8 7.5
2015-Jun-30 22:33N 38°08' E 015°31'8 7.5
2015-Jun-30 21:33N 38°13' E 015°38'7 7.5
2015-Jun-30 20:34N 38°08' E 015°31'7 7.5
2015-Jun-30 19:33N 38°13' E 015°38'5 4.7
2015-Jun-30 18:33N 38°09' E 015°36'2 2.0
2015-Jun-30 17:33N 38°11' E 015°35'2 1.7
2015-Jun-30 16:33N 38°11' E 015°37'3 3.2
2015-Jun-30 15:33N 38°09' E 015°34'5 5.3
2015-Jun-30 14:33N 38°13' E 015°38'7 7.1
2015-Jun-30 13:32N 38°08' E 015°31'7 7.6
2015-Jun-30 12:33N 38°13' E 015°38'3 3.4
2015-Jun-30 11:33N 38°13' E 015°34'0 0.0
2015-Jun-30 10:33N 38°13' E 015°34'0 0.0
2015-Jun-30 09:30N 38°13' E 015°34'0 0.0
2015-Jun-30 08:33N 38°13' E 015°34'0 0.0
2015-Jun-30 07:33N 38°13' E 015°34'0 0.0
2015-Jun-30 06:34N 38°13' E 015°34'0 0.0
2015-Jun-30 00:33N 38°13' E 015°34'4 3.9
2015-Jun-29 23:33N 38°09' E 015°36'2 2.4
2015-Jun-29 22:33N 38°09' E 015°33'6 6.2
2015-Jun-29 21:33N 38°13' E 015°38'7 7.4
2015-Jun-29 20:33N 38°08' E 015°31'7 7.5
2015-Jun-29 19:33N 38°13' E 015°38'4 3.9
2015-Jun-29 18:33N 38°10' E 015°36'2 1.6
2015-Jun-29 17:33N 38°11' E 015°35'2 1.9
2015-Jun-29 16:33N 38°10' E 015°37'2 2.0
2015-Jun-29 15:33N 38°10' E 015°34'5 4.7
2015-Jun-29 14:33N 38°13' E 015°38'7 7.5
2015-Jun-29 13:33N 38°08' E 015°31'7 7.5
2015-Jun-29 12:33N 38°13' E 015°38'6 5.9
2015-Jun-29 11:33N 38°09' E 015°34'4 4.2
2015-Jun-29 10:33N 38°12' E 015°36'4 3.5
2015-Jun-29 09:33N 38°09' E 015°36'3 3.1
2015-Jun-29 08:33N 38°12' E 015°36'3 3.3
2015-Jun-29 07:33N 38°09' E 015°36'2 2.0
2015-Jun-29 06:33N 38°10' E 015°35'4 0.1
2015-Jun-27 23:29N 38°13' E 015°38'7 7.9
2015-Jun-27 22:33N 38°08' E 015°32'7 7.2
2015-Jun-27 21:32N 38°13' E 015°38'7 7.5
2015-Jun-27 20:34N 38°08' E 015°32'7 7.2
2015-Jun-27 19:33N 38°13' E 015°38'3 3.2
2015-Jun-27 18:33N 38°10' E 015°37'2 1.9
2015-Jun-27 17:34N 38°10' E 015°34'3 3.3
2015-Jun-27 16:34N 38°12' E 015°37'5 4.9
2015-Jun-27 15:34N 38°09' E 015°33'6 6.3
2015-Jun-27 14:33N 38°13' E 015°38'8 7.5
2015-Jun-27 13:33N 38°08' E 015°31'7 7.5
2015-Jun-27 12:33N 38°13' E 015°38'7 7.4
2015-Jun-27 11:33N 38°08' E 015°31'7 7.3
2015-Jun-27 10:33N 38°13' E 015°38'7 7.0
2015-Jun-27 09:33N 38°08' E 015°32'7 6.6
2015-Jun-27 08:34N 38°13' E 015°37'5 5.0
2015-Jun-27 07:33N 38°09' E 015°34'2 1.6
2015-Jun-27 06:33N 38°10' E 015°35'4 0.8
2015-Jun-27 01:33N 38°13' E 015°38'7 7.4
2015-Jun-27 00:33N 38°08' E 015°31'8 7.5
2015-Jun-26 23:34N 38°13' E 015°38'7 7.3
2015-Jun-26 22:33N 38°08' E 015°32'7 7.1
2015-Jun-26 21:33N 38°13' E 015°37'6 6.4
2015-Jun-26 20:33N 38°08' E 015°33'7 6.7
2015-Jun-26 19:34N 38°13' E 015°38'5 4.8
2015-Jun-26 18:33N 38°09' E 015°36'3 2.5
2015-Jun-26 17:34N 38°11' E 015°35'2 2.1
2015-Jun-26 16:34N 38°10' E 015°36'2 1.7
2015-Jun-26 15:34N 38°10' E 015°34'4 4.5
2015-Jun-26 14:34N 38°13' E 015°38'7 6.8
2015-Jun-26 13:33N 38°08' E 015°32'7 7.0
2015-Jun-26 12:33N 38°13' E 015°38'7 7.1
2015-Jun-26 11:33N 38°08' E 015°32'7 6.6
2015-Jun-26 10:33N 38°13' E 015°37'5 4.8
2015-Jun-26 09:33N 38°09' E 015°35'3 3.2
2015-Jun-26 08:33N 38°12' E 015°35'3 3.0
2015-Jun-26 07:33N 38°09' E 015°35'2 1.7
2015-Jun-26 06:34N 38°10' E 015°35'4 0.7
2015-Jun-26 01:18N 38°13' E 015°38'7 9.1
2015-Jun-26 00:34N 38°08' E 015°32'7 6.8
2015-Jun-25 23:34N 38°13' E 015°38'6 5.7
2015-Jun-25 22:33N 38°08' E 015°35'5 5.0
2015-Jun-25 21:34N 38°13' E 015°36'6 6.0
2015-Jun-25 20:33N 38°08' E 015°32'7 6.5
2015-Jun-25 19:33N 38°13' E 015°37'5 4.9
2015-Jun-25 18:33N 38°09' E 015°35'2 2.1
2015-Jun-25 17:34N 38°11' E 015°35'2 1.8
2015-Jun-25 16:34N 38°11' E 015°37'4 3.6
2015-Jun-25 15:33N 38°09' E 015°33'6 5.7
2015-Jun-25 14:33N 38°13' E 015°38'7 7.4
2015-Jun-25 13:33N 38°08' E 015°31'7 7.6
2015-Jun-25 12:34N 38°13' E 015°38'7 7.4
2015-Jun-25 11:33N 38°08' E 015°31'7 7.4
2015-Jun-25 10:34N 38°13' E 015°38'6 5.8
2015-Jun-25 09:34N 38°09' E 015°33'2 2.5
2015-Jun-25 08:34N 38°11' E 015°35'2 1.8
2015-Jun-25 07:34N 38°09' E 015°35'1 1.4
2015-Jun-25 06:34N 38°10' E 015°35'4 0.7
2015-Jun-25 01:31N 38°13' E 015°38'7 7.6
2015-Jun-25 00:33N 38°08' E 015°31'  
Track history (hours):
 
Tides and Currents Weather Stations Pressure Air Temp Water Temp Dewpoint Dewpoint Depression Visibility Wind Speed Wind Dir Waves Ship Positions

Archimede

Last reported at 2015-Jul-05 00:04 UTC. Time now 2015-Jul-05 21:06 UTC.
Position N 38°13' E 015°34'.

; draft 3.1 m.

Type: Passenger vessel. MMSI: 247054700.

Date/timePositionNaut miles runAvg speedWind from/ knotsBaromVisibWave heightAir tempDewpointWater temp
2015-Jul-05 00:04N 38°13' E 015°34'3 6.6
2015-Jul-04 23:33N 38°13' E 015°38'7 6.7
2015-Jul-04 22:33N 38°08' E 015°32'7 6.8
2015-Jul-04 21:33N 38°13' E 015°38'8 7.5
2015-Jul-04 20:34N 38°08' E 015°31'7 7.4
2015-Jul-04 19:33N 38°13' E 015°38'5 5.4
2015-Jul-04 18:33N 38°09' E 015°35'5 4.6
2015-Jul-04 17:33N 38°13' E 015°37'5 4.8
2015-Jul-04 16:34N 38°09' E 015°34'3 2.5
2015-Jul-04 15:33N 38°11' E 015°35'3 3.3
2015-Jul-04 14:33N 38°13' E 015°38'7 7.5
2015-Jul-04 13:34N 38°08' E 015°31'7 7.5
2015-Jul-04 12:33N 38°13' E 015°38'6 5.9
2015-Jul-04 11:33N 38°08' E 015°34'5 5.2
2015-Jul-04 10:33N 38°13' E 015°37'6 5.6
2015-Jul-04 09:33N 38°08' E 015°33'3 3.1
2015-Jul-04 08:33N 38°11' E 015°35'2 2.0
2015-Jul-04 07:33N 38°09' E 015°36'2 1.7
2015-Jul-04 06:33N 38°11' E 015°36'3 0.5
2015-Jul-04 00:26N 38°13' E 015°38'3 3.8
2015-Jul-03 23:33N 38°13' E 015°34'3 3.4
2015-Jul-03 22:34N 38°13' E 015°38'0 0.0
2015-Jul-03 21:34N 38°13' E 015°38'7 7.2
2015-Jul-03 20:32N 38°08' E 015°31'7 7.4
2015-Jul-03 19:33N 38°13' E 015°38'5 5.1
2015-Jul-03 18:33N 38°09' E 015°35'4 3.8
2015-Jul-03 17:33N 38°12' E 015°36'4 3.8
2015-Jul-03 16:33N 38°09' E 015°35'2 2.5
2015-Jul-03 15:33N 38°11' E 015°35'2 2.0
2015-Jul-03 14:33N 38°12' E 015°37'6 6.2
2015-Jul-03 13:33N 38°08' E 015°32'7 7.3
2015-Jul-03 12:33N 38°13' E 015°38'5 5.4
2015-Jul-03 11:33N 38°09' E 015°35'3 3.2
2015-Jul-03 10:33N 38°12' E 015°36'2 2.3
2015-Jul-03 09:33N 38°09' E 015°36'2 1.5
2015-Jul-03 08:33N 38°10' E 015°35'2 1.5
2015-Jul-03 07:33N 38°09' E 015°36'2 1.6
2015-Jul-03 06:33N 38°10' E 015°35'4 0.8
2015-Jul-03 01:27N 38°13' E 015°38'7 6.7
2015-Jul-03 00:20N 38°08' E 015°31'7 9.6
2015-Jul-02 23:33N 38°13' E 015°38'7 7.2
2015-Jul-02 22:33N 38°08' E 015°32'7 6.8
2015-Jul-02 21:33N 38°13' E 015°37'7 6.8
2015-Jul-02 20:32N 38°08' E 015°31'7 7.7
2015-Jul-02 19:33N 38°13' E 015°38'6 5.8
2015-Jul-02 18:33N 38°09' E 015°34'4 3.9
2015-Jul-02 17:33N 38°12' E 015°36'2 1.9
2015-Jul-02 16:33N 38°10' E 015°37'3 2.5
2015-Jul-02 15:33N 38°09' E 015°34'5 5.1
2015-Jul-02 14:34N 38°13' E 015°38'7 7.3
2015-Jul-02 13:33N 38°08' E 015°31'7 7.4
2015-Jul-02 12:33N 38°13' E 015°38'7 7.0
2015-Jul-02 11:33N 38°08' E 015°32'6 6.2
2015-Jul-02 10:33N 38°13' E 015°37'5 5.0
2015-Jul-02 09:33N 38°08' E 015°34'2 2.4
2015-Jul-02 08:33N 38°11' E 015°35'2 2.0
2015-Jul-02 07:33N 38°09' E 015°36'2 2.0
2015-Jul-02 06:34N 38°10' E 015°35'2 0.4
2015-Jul-02 00:34N 38°11' E 015°37'6 5.8
2015-Jul-01 23:34N 38°08' E 015°31'7 7.4
2015-Jul-01 22:34N 38°13' E 015°38'0 0.0
2015-Jul-01 21:33N 38°13' E 015°38'7 7.4
2015-Jul-01 20:34N 38°08' E 015°31'7 7.4
2015-Jul-01 19:34N 38°13' E 015°38'5 5.3
2015-Jul-01 18:33N 38°09' E 015°35'2 2.5
2015-Jul-01 17:34N 38°11' E 015°35'2 1.6
2015-Jul-01 16:33N 38°11' E 015°37'3 3.0
2015-Jul-01 15:33N 38°09' E 015°34'5 5.2
2015-Jul-01 14:33N 38°13' E 015°38'7 7.5
2015-Jul-01 13:33N 38°08' E 015°31'7 7.5
2015-Jul-01 12:34N 38°13' E 015°38'6 6.2
2015-Jul-01 11:34N 38°08' E 015°33'6 5.6
2015-Jul-01 10:33N 38°13' E 015°37'4 4.1
2015-Jul-01 09:33N 38°09' E 015°36'2 1.7
2015-Jul-01 08:33N 38°11' E 015°35'2 1.7
2015-Jul-01 07:33N 38°09' E 015°36'2 1.6
2015-Jul-01 06:33N 38°10' E 015°35'4 0.8
2015-Jul-01 01:34N 38°13' E 015°38'7 7.4
2015-Jul-01 00:33N 38°08' E 015°31'7 7.5
2015-Jun-30 23:33N 38°13' E 015°38'8 7.5
2015-Jun-30 22:33N 38°08' E 015°31'8 7.5
2015-Jun-30 21:33N 38°13' E 015°38'7 7.5
2015-Jun-30 20:34N 38°08' E 015°31'7 7.5
2015-Jun-30 19:33N 38°13' E 015°38'5 4.7
2015-Jun-30 18:33N 38°09' E 015°36'2 2.0
2015-Jun-30 17:33N 38°11' E 015°35'2 1.7
2015-Jun-30 16:33N 38°11' E 015°37'3 3.2
2015-Jun-30 15:33N 38°09' E 015°34'5 5.3
2015-Jun-30 14:33N 38°13' E 015°38'7 7.1
2015-Jun-30 13:32N 38°08' E 015°31'7 7.6
2015-Jun-30 12:33N 38°13' E 015°38'3 3.4
2015-Jun-30 11:33N 38°13' E 015°34'0 0.0
2015-Jun-30 10:33N 38°13' E 015°34'0 0.0
2015-Jun-30 09:30N 38°13' E 015°34'0 0.0
2015-Jun-30 08:33N 38°13' E 015°34'0 0.0
2015-Jun-30 07:33N 38°13' E 015°34'0 0.0
2015-Jun-30 06:34N 38°13' E 015°34'0 0.0
2015-Jun-30 00:33N 38°13' E 015°34'4 3.9
2015-Jun-29 23:33N 38°09' E 015°36'2 2.4
2015-Jun-29 22:33N 38°09' E 015°33'6 6.2
2015-Jun-29 21:33N 38°13' E 015°38'7 7.4
2015-Jun-29 20:33N 38°08' E 015°31'7 7.5
2015-Jun-29 19:33N 38°13' E 015°38'4 3.9
2015-Jun-29 18:33N 38°10' E 015°36'2 1.6
2015-Jun-29 17:33N 38°11' E 015°35'2 1.9
2015-Jun-29 16:33N 38°10' E 015°37'2 2.0
2015-Jun-29 15:33N 38°10' E 015°34'5 4.7
2015-Jun-29 14:33N 38°13' E 015°38'7 7.5
2015-Jun-29 13:33N 38°08' E 015°31'7 7.5
2015-Jun-29 12:33N 38°13' E 015°38'6 5.9
2015-Jun-29 11:33N 38°09' E 015°34'4 4.2
2015-Jun-29 10:33N 38°12' E 015°36'4 3.5
2015-Jun-29 09:33N 38°09' E 015°36'3 3.1
2015-Jun-29 08:33N 38°12' E 015°36'3 3.3
2015-Jun-29 07:33N 38°09' E 015°36'2 2.0
2015-Jun-29 06:33N 38°10' E 015°35'4 0.1
2015-Jun-27 23:29N 38°13' E 015°38'7 7.9
2015-Jun-27 22:33N 38°08' E 015°32'7 7.2
2015-Jun-27 21:32N 38°13' E 015°38'7 7.5
2015-Jun-27 20:34N 38°08' E 015°32'7 7.2
2015-Jun-27 19:33N 38°13' E 015°38'3 3.2
2015-Jun-27 18:33N 38°10' E 015°37'2 1.9
2015-Jun-27 17:34N 38°10' E 015°34'3 3.3
2015-Jun-27 16:34N 38°12' E 015°37'5 4.9
2015-Jun-27 15:34N 38°09' E 015°33'6 6.3
2015-Jun-27 14:33N 38°13' E 015°38'8 7.5
2015-Jun-27 13:33N 38°08' E 015°31'7 7.5
2015-Jun-27 12:33N 38°13' E 015°38'7 7.4
2015-Jun-27 11:33N 38°08' E 015°31'7 7.3
2015-Jun-27 10:33N 38°13' E 015°38'7 7.0
2015-Jun-27 09:33N 38°08' E 015°32'7 6.6
2015-Jun-27 08:34N 38°13' E 015°37'5 5.0
2015-Jun-27 07:33N 38°09' E 015°34'2 1.6
2015-Jun-27 06:33N 38°10' E 015°35'4 0.8
2015-Jun-27 01:33N 38°13' E 015°38'7 7.4
2015-Jun-27 00:33N 38°08' E 015°31'8 7.5
2015-Jun-26 23:34N 38°13' E 015°38'7 7.3
2015-Jun-26 22:33N 38°08' E 015°32'7 7.1
2015-Jun-26 21:33N 38°13' E 015°37'6 6.4
2015-Jun-26 20:33N 38°08' E 015°33'7 6.7
2015-Jun-26 19:34N 38°13' E 015°38'5 4.8
2015-Jun-26 18:33N 38°09' E 015°36'3 2.5
2015-Jun-26 17:34N 38°11' E 015°35'2 2.1
2015-Jun-26 16:34N 38°10' E 015°36'2 1.7
2015-Jun-26 15:34N 38°10' E 015°34'4 4.5
2015-Jun-26 14:34N 38°13' E 015°38'7 6.8
2015-Jun-26 13:33N 38°08' E 015°32'7 7.0
2015-Jun-26 12:33N 38°13' E 015°38'7 7.1
2015-Jun-26 11:33N 38°08' E 015°32'7 6.6
2015-Jun-26 10:33N 38°13' E 015°37'5 4.8
2015-Jun-26 09:33N 38°09' E 015°35'3 3.2
2015-Jun-26 08:33N 38°12' E 015°35'3 3.0
2015-Jun-26 07:33N 38°09' E 015°35'2 1.7
2015-Jun-26 06:34N 38°10' E 015°35'4 0.7
2015-Jun-26 01:18N 38°13' E 015°38'7 9.1
2015-Jun-26 00:34N 38°08' E 015°32'7 6.8
2015-Jun-25 23:34N 38°13' E 015°38'6 5.7
2015-Jun-25 22:33N 38°08' E 015°35'5 5.0
2015-Jun-25 21:34N 38°13' E 015°36'6 6.0
2015-Jun-25 20:33N 38°08' E 015°32'7 6.5
2015-Jun-25 19:33N 38°13' E 015°37'5 4.9
2015-Jun-25 18:33N 38°09' E 015°35'2 2.1
2015-Jun-25 17:34N 38°11' E 015°35'2 1.8
2015-Jun-25 16:34N 38°11' E 015°37'4 3.6
2015-Jun-25 15:33N 38°09' E 015°33'6 5.7
2015-Jun-25 14:33N 38°13' E 015°38'7 7.4
2015-Jun-25 13:33N 38°08' E 015°31'7 7.6
2015-Jun-25 12:34N 38°13' E 015°38'7 7.4
2015-Jun-25 11:33N 38°08' E 015°31'7 7.4
2015-Jun-25 10:34N 38°13' E 015°38'6 5.8
2015-Jun-25 09:34N 38°09' E 015°33'2 2.5
2015-Jun-25 08:34N 38°11' E 015°35'2 1.8
2015-Jun-25 07:34N 38°09' E 015°35'1 1.4
2015-Jun-25 06:34N 38°10' E 015°35'4 0.7
2015-Jun-25 01:31N 38°13' E 015°38'7 7.6
2015-Jun-25 00:33N 38°08' E 015°31'  

Dump ship's entire track history